createdAt,value
2018-04-15T00:01:49.326Z,91.10
2018-04-15T00:04:17.682Z,90.70
2018-04-15T00:06:45.999Z,90.70
2018-04-15T00:09:14.339Z,90.70
2018-04-15T00:11:42.645Z,90.70
2018-04-15T00:14:10.982Z,90.90
2018-04-15T00:16:39.294Z,90.70
2018-04-15T00:19:07.633Z,90.80
2018-04-15T00:21:35.941Z,90.80
2018-04-15T00:24:04.273Z,91.00
2018-04-15T00:26:32.585Z,90.90
2018-04-15T00:29:00.922Z,90.90
2018-04-15T00:31:29.229Z,91.00
2018-04-15T00:33:57.562Z,91.10
2018-04-15T00:36:25.868Z,91.20
2018-04-15T00:38:54.205Z,91.30
2018-04-15T00:41:22.529Z,91.30
2018-04-15T00:43:50.856Z,91.30
2018-04-15T00:46:19.166Z,91.40
2018-04-15T00:48:47.495Z,91.50
2018-04-15T00:51:15.803Z,91.70
2018-04-15T00:53:55.840Z,91.70
2018-04-15T00:56:24.151Z,91.80
2018-04-15T00:58:52.503Z,92.00
2018-04-15T01:01:20.815Z,92.20
2018-04-15T01:03:49.188Z,92.40
2018-04-15T01:06:17.493Z,92.40
2018-04-15T01:08:45.829Z,92.40
2018-04-15T01:11:14.146Z,92.50
2018-04-15T01:13:42.479Z,92.50
2018-04-15T01:16:10.795Z,92.60
2018-04-15T01:18:39.130Z,92.70
2018-04-15T01:21:07.438Z,92.60
2018-04-15T01:23:35.776Z,92.60
2018-04-15T01:26:04.085Z,92.50
2018-04-15T01:28:32.420Z,92.50
2018-04-15T01:31:00.734Z,92.40
2018-04-15T01:33:29.075Z,92.30
2018-04-15T01:35:57.386Z,92.20
2018-04-15T01:38:25.726Z,92.20
2018-04-15T01:40:54.077Z,92.10
2018-04-15T01:43:22.431Z,91.90
2018-04-15T01:45:50.845Z,91.80
2018-04-15T01:48:19.183Z,91.90
2018-04-15T01:50:47.519Z,92.00
2018-04-15T01:53:15.825Z,92.10
2018-04-15T01:55:44.170Z,92.20
2018-04-15T01:58:12.486Z,92.30
2018-04-15T02:00:40.825Z,92.40
2018-04-15T02:03:09.134Z,92.70
2018-04-15T02:05:37.475Z,92.70
2018-04-15T02:08:05.787Z,92.70
2018-04-15T02:10:34.123Z,92.60
2018-04-15T02:13:02.435Z,92.60
2018-04-15T02:15:30.768Z,92.60
2018-04-15T02:17:59.092Z,92.50
2018-04-15T02:20:27.435Z,92.50
2018-04-15T02:22:55.795Z,92.50
2018-04-15T02:25:24.125Z,92.50
2018-04-15T02:27:52.441Z,92.50
2018-04-15T02:30:20.798Z,92.50
2018-04-15T02:32:49.154Z,92.50
2018-04-15T02:35:17.489Z,92.60
2018-04-15T02:37:45.798Z,92.60
2018-04-15T02:40:14.135Z,92.70
2018-04-15T02:42:42.446Z,92.80
2018-04-15T02:45:10.780Z,92.80
2018-04-15T02:47:39.093Z,92.90
2018-04-15T02:50:07.428Z,93.00
2018-04-15T02:52:35.742Z,93.00
2018-04-15T02:55:04.074Z,93.10
2018-04-15T02:57:32.393Z,93.10
2018-04-15T03:00:00.735Z,93.20
2018-04-15T03:02:29.051Z,93.20
2018-04-15T03:04:57.387Z,93.30
2018-04-15T03:07:25.694Z,93.30
2018-04-15T03:09:54.033Z,93.40
2018-04-15T03:12:22.341Z,93.40
2018-04-15T03:14:50.680Z,93.50
2018-04-15T03:17:19.004Z,93.50
2018-04-15T03:19:47.336Z,93.50
2018-04-15T03:22:15.650Z,93.60
2018-04-15T03:24:43.984Z,93.70
2018-04-15T03:27:12.299Z,93.70
2018-04-15T03:29:40.650Z,93.80
2018-04-15T03:32:08.958Z,93.90
2018-04-15T03:34:37.714Z,94.00
2018-04-15T03:37:06.054Z,93.90
2018-04-15T03:39:33.602Z,93.90
2018-04-15T03:42:01.938Z,94.00
2018-04-15T03:44:30.256Z,94.00
2018-04-15T03:46:58.597Z,94.00
2018-04-15T03:49:26.909Z,94.20
2018-04-15T03:51:55.251Z,94.00
2018-04-15T03:54:23.563Z,94.10
2018-04-15T03:56:51.929Z,94.10
2018-04-15T03:59:20.336Z,94.10
2018-04-15T04:01:48.730Z,94.10
2018-04-15T04:04:17.041Z,94.10
2018-04-15T04:06:45.378Z,94.20
2018-04-15T04:09:13.693Z,94.40
2018-04-15T04:11:42.024Z,94.60
2018-04-15T04:14:10.341Z,94.80
2018-04-15T04:16:38.666Z,94.90
2018-04-15T04:19:18.718Z,95.00
2018-04-15T04:21:58.777Z,94.90
2018-04-15T04:24:39.021Z,94.90
2018-04-15T04:27:07.352Z,95.00
2018-04-15T04:29:35.662Z,95.20
2018-04-15T04:32:03.998Z,95.20
2018-04-15T04:34:32.309Z,95.60
2018-04-15T04:37:00.658Z,95.20
2018-04-15T04:39:28.996Z,95.30
2018-04-15T04:41:57.335Z,95.10
2018-04-15T04:44:25.650Z,95.00
2018-04-15T04:46:54.003Z,94.90
2018-04-15T04:49:22.325Z,94.90
2018-04-15T04:51:50.798Z,94.80
2018-04-15T04:54:19.228Z,94.90
2018-04-15T04:56:47.574Z,95.00
2018-04-15T04:59:15.892Z,95.00
2018-04-15T05:01:44.237Z,94.90
2018-04-15T05:04:12.545Z,94.90
2018-04-15T05:06:40.887Z,94.90
2018-04-15T05:09:09.192Z,94.80
2018-04-15T05:11:37.585Z,94.70
2018-04-15T05:14:05.902Z,95.10
2018-04-15T05:16:34.232Z,94.80
2018-04-15T05:19:02.545Z,94.70
2018-04-15T05:21:30.861Z,94.70
2018-04-15T05:23:59.202Z,94.70
2018-04-15T05:26:27.517Z,94.70
2018-04-15T05:28:55.846Z,94.70
2018-04-15T05:31:24.184Z,94.50
2018-04-15T05:33:52.521Z,94.50
2018-04-15T05:36:20.947Z,94.50
2018-04-15T05:38:49.384Z,94.40
2018-04-15T05:41:17.700Z,94.30
2018-04-15T05:43:46.039Z,94.20
2018-04-15T05:46:14.350Z,94.10
2018-04-15T05:48:42.678Z,94.10
2018-04-15T05:51:10.989Z,94.00
2018-04-15T05:53:39.322Z,93.80
2018-04-15T05:56:07.637Z,93.70
2018-04-15T05:58:35.985Z,93.30
2018-04-15T06:01:04.294Z,92.90
2018-04-15T06:03:32.638Z,92.60
2018-04-15T06:06:00.946Z,92.40
2018-04-15T06:08:29.273Z,92.30
2018-04-15T06:10:57.582Z,91.90
2018-04-15T06:13:25.919Z,91.40
2018-04-15T06:15:54.246Z,90.90
2018-04-15T06:18:22.578Z,90.50
2018-04-15T06:20:50.899Z,90.10
2018-04-15T06:23:19.261Z,90.10
2018-04-15T06:25:47.577Z,90.30
2018-04-15T06:28:15.921Z,90.40
2018-04-15T06:30:44.233Z,90.20
2018-04-15T06:33:12.570Z,90.10
2018-04-15T06:35:40.884Z,90.30
2018-04-15T06:38:09.223Z,90.40
2018-04-15T06:40:37.530Z,90.50
2018-04-15T06:43:05.868Z,90.00
2018-04-15T06:45:34.201Z,88.80
2018-04-15T06:48:02.538Z,88.10
2018-04-15T06:50:30.862Z,87.90
2018-04-15T06:52:59.199Z,87.50
2018-04-15T06:55:27.516Z,86.60
2018-04-15T06:57:55.854Z,85.80
2018-04-15T07:00:24.168Z,85.00
2018-04-15T07:02:52.492Z,84.10
2018-04-15T07:05:20.801Z,83.80
2018-04-15T07:07:49.137Z,83.20
2018-04-15T07:10:16.679Z,83.20
2018-04-15T07:12:44.999Z,82.80
2018-04-15T07:15:13.332Z,84.50
2018-04-15T07:17:41.647Z,83.00
2018-04-15T07:20:09.983Z,82.10
2018-04-15T07:22:38.289Z,80.70
2018-04-15T07:25:06.619Z,79.60
2018-04-15T07:27:34.925Z,78.80
2018-04-15T07:30:03.285Z,78.10
2018-04-15T07:32:31.593Z,78.00
2018-04-15T07:34:59.920Z,77.10
2018-04-15T07:37:28.235Z,77.10
2018-04-15T07:39:56.565Z,76.80
2018-04-15T07:42:24.878Z,76.70
2018-04-15T07:44:53.205Z,76.00
2018-04-15T07:47:21.521Z,76.60
2018-04-15T07:49:49.861Z,76.60
2018-04-15T07:52:18.186Z,75.80
2018-04-15T07:54:46.530Z,75.00
2018-04-15T07:57:14.850Z,74.60
2018-04-15T07:59:43.185Z,74.90
2018-04-15T08:02:11.502Z,74.80
2018-04-15T08:04:39.837Z,73.50
2018-04-15T08:07:08.145Z,72.10
2018-04-15T08:09:36.477Z,71.00
2018-04-15T08:12:04.782Z,71.30
2018-04-15T08:14:33.108Z,70.90
2018-04-15T08:17:01.423Z,69.20
2018-04-15T08:19:29.749Z,69.50
2018-04-15T08:21:58.058Z,69.30
2018-04-15T08:24:26.387Z,69.00
2018-04-15T08:26:54.694Z,68.30
2018-04-15T08:29:23.027Z,68.40
2018-04-15T08:31:51.332Z,68.30
2018-04-15T08:34:19.673Z,68.40
2018-04-15T08:36:47.978Z,68.40
2018-04-15T08:39:16.306Z,68.50
2018-04-15T08:41:44.612Z,68.80
2018-04-15T08:44:12.942Z,68.30
2018-04-15T08:46:41.252Z,67.60
2018-04-15T08:49:09.589Z,66.60
2018-04-15T08:51:38.214Z,65.60
2018-04-15T08:54:06.546Z,64.50
2018-04-15T08:56:34.853Z,65.60
2018-04-15T08:59:03.153Z,65.20
2018-04-15T09:01:31.485Z,64.90
2018-04-15T09:03:59.793Z,64.80
2018-04-15T09:06:28.130Z,63.60
2018-04-15T09:08:56.439Z,62.00
2018-04-15T09:11:24.775Z,61.80
2018-04-15T09:13:53.087Z,61.90
2018-04-15T09:16:21.417Z,61.10
2018-04-15T09:18:49.730Z,59.50
2018-04-15T09:21:18.064Z,59.10
2018-04-15T09:23:46.373Z,59.30
2018-04-15T09:26:14.706Z,59.40
2018-04-15T09:28:43.019Z,58.90
2018-04-15T09:31:12.141Z,58.10
2018-04-15T09:33:40.456Z,58.00
2018-04-15T09:36:08.785Z,57.80
2018-04-15T09:38:37.100Z,57.80
2018-04-15T09:41:05.477Z,57.10
2018-04-15T09:43:33.775Z,55.80
2018-04-15T09:46:02.107Z,55.20
2018-04-15T09:48:30.410Z,55.40
2018-04-15T09:50:58.742Z,54.50
2018-04-15T09:53:27.054Z,54.20
2018-04-15T09:55:55.390Z,53.60
2018-04-15T09:58:23.722Z,54.10
2018-04-15T10:00:52.050Z,54.20
2018-04-15T10:03:19.593Z,54.30
2018-04-15T10:05:47.933Z,54.30
2018-04-15T10:08:16.245Z,53.40
2018-04-15T10:10:44.578Z,51.20
2018-04-15T10:13:12.889Z,50.00
2018-04-15T10:15:41.219Z,50.10
2018-04-15T10:18:09.525Z,50.30
2018-04-15T10:20:37.858Z,49.60
2018-04-15T10:23:06.184Z,49.00
2018-04-15T10:25:34.521Z,49.50
2018-04-15T10:28:02.825Z,48.20
2018-04-15T10:30:31.168Z,48.10
2018-04-15T10:32:59.484Z,49.00
2018-04-15T10:35:27.813Z,49.30
2018-04-15T10:37:56.132Z,50.40
2018-04-15T10:40:24.437Z,51.10
2018-04-15T10:42:52.765Z,51.80
2018-04-15T10:45:21.090Z,52.00
2018-04-15T10:47:48.670Z,51.60
2018-04-15T10:50:16.990Z,51.70
2018-04-15T10:52:45.320Z,51.80
2018-04-15T10:55:13.626Z,50.20
2018-04-15T10:57:41.961Z,49.90
2018-04-15T11:00:10.281Z,50.00
2018-04-15T11:02:38.634Z,49.80
2018-04-15T11:05:06.980Z,48.60
2018-04-15T11:07:35.613Z,48.10
2018-04-15T11:10:03.926Z,48.30
2018-04-15T11:12:32.254Z,47.40
2018-04-15T11:15:00.559Z,47.50
2018-04-15T11:17:28.887Z,48.20
2018-04-15T11:19:57.213Z,48.80
2018-04-15T11:22:25.538Z,50.00
2018-04-15T11:24:53.847Z,50.60
2018-04-15T11:27:22.177Z,50.00
2018-04-15T11:29:50.495Z,49.70
2018-04-15T11:32:19.329Z,50.40
2018-04-15T11:34:47.638Z,50.60
2018-04-15T11:37:15.969Z,49.90
2018-04-15T11:39:44.281Z,47.80
2018-04-15T11:42:12.621Z,46.80
2018-04-15T11:44:40.925Z,46.50
2018-04-15T11:47:08.552Z,46.50
2018-04-15T11:49:36.866Z,45.60
2018-04-15T11:52:05.206Z,44.80
2018-04-15T11:54:33.518Z,44.00
2018-04-15T11:57:01.871Z,43.80
2018-04-15T11:59:30.182Z,42.60
2018-04-15T12:01:58.513Z,42.60
2018-04-15T12:04:26.823Z,43.20
2018-04-15T12:06:55.159Z,43.70
2018-04-15T12:09:23.489Z,44.10
2018-04-15T12:11:51.827Z,43.90
2018-04-15T12:14:20.130Z,44.20
2018-04-15T12:16:48.460Z,44.70
2018-04-15T12:19:16.774Z,43.30
2018-04-15T12:21:45.110Z,43.20
2018-04-15T12:24:13.433Z,43.60
2018-04-15T12:26:41.788Z,43.90
2018-04-15T12:29:10.102Z,43.70
2018-04-15T12:31:38.413Z,43.90
2018-04-15T12:34:06.753Z,44.30
2018-04-15T12:36:35.070Z,43.00
2018-04-15T12:39:03.410Z,42.10
2018-04-15T12:41:31.722Z,42.20
2018-04-15T12:44:00.062Z,40.60
2018-04-15T12:46:28.374Z,40.70
2018-04-15T12:48:56.707Z,39.60
2018-04-15T12:51:25.012Z,40.00
2018-04-15T12:53:53.362Z,41.20
2018-04-15T12:56:21.678Z,40.80
2018-04-15T12:58:50.119Z,41.90
2018-04-15T13:01:18.430Z,42.80
2018-04-15T13:03:46.765Z,42.50
2018-04-15T13:06:15.078Z,41.10
2018-04-15T13:08:43.411Z,41.00
2018-04-15T13:11:11.718Z,41.10
2018-04-15T13:13:40.050Z,41.40
2018-04-15T13:16:08.365Z,41.30
2018-04-15T13:18:36.694Z,41.90
2018-04-15T13:21:05.001Z,41.60
2018-04-15T13:23:33.334Z,41.70
2018-04-15T13:26:01.647Z,41.90
2018-04-15T13:28:29.977Z,42.00
2018-04-15T13:30:58.286Z,41.30
2018-04-15T13:33:25.850Z,41.20
2018-04-15T13:35:54.165Z,41.50
2018-04-15T13:38:22.502Z,42.00
2018-04-15T13:40:50.818Z,42.60
2018-04-15T13:43:19.151Z,42.10
2018-04-15T13:45:51.200Z,41.40
2018-04-15T13:48:19.539Z,40.50
2018-04-15T13:50:47.850Z,39.80
2018-04-15T13:53:16.211Z,39.80
2018-04-15T13:55:44.527Z,40.60
2018-04-15T13:58:12.859Z,41.30
2018-04-15T14:00:41.170Z,41.30
2018-04-15T14:03:09.501Z,41.60
2018-04-15T14:05:37.829Z,41.30
2018-04-15T14:08:06.175Z,42.00
2018-04-15T14:10:34.478Z,42.70
2018-04-15T14:13:02.801Z,43.20
2018-04-15T14:15:31.117Z,43.90
2018-04-15T14:17:59.425Z,44.20
2018-04-15T14:20:27.758Z,44.50
2018-04-15T14:22:56.061Z,44.80
2018-04-15T14:25:24.439Z,45.00
2018-04-15T14:27:52.725Z,45.20
2018-04-15T14:30:20.283Z,45.10
2018-04-15T14:32:48.596Z,45.40
2018-04-15T14:35:16.931Z,45.80
2018-04-15T14:37:45.245Z,46.10
2018-04-15T14:40:13.575Z,46.20
2018-04-15T14:42:41.893Z,46.30
2018-04-15T14:45:10.257Z,46.20
2018-04-15T14:47:38.565Z,45.90
2018-04-15T14:50:06.912Z,46.40
2018-04-15T14:52:35.233Z,46.60
2018-04-15T14:55:03.675Z,45.90
2018-04-15T14:57:32.008Z,45.40
2018-04-15T15:00:00.343Z,45.40
2018-04-15T15:02:28.653Z,45.50
2018-04-15T15:04:56.978Z,45.60
2018-04-15T15:07:25.300Z,45.60
2018-04-15T15:09:53.629Z,45.30
2018-04-15T15:12:21.934Z,45.30
2018-04-15T15:14:50.261Z,44.40
2018-04-15T15:17:18.601Z,44.20
2018-04-15T15:19:46.977Z,44.40
2018-04-15T15:22:15.264Z,44.30
2018-04-15T15:24:43.595Z,43.50
2018-04-15T15:27:11.901Z,43.50
2018-04-15T15:29:40.229Z,44.00
2018-04-15T15:32:08.541Z,44.00
2018-04-15T15:34:36.873Z,43.30
2018-04-15T15:37:05.182Z,42.30
2018-04-15T15:39:33.514Z,40.60
2018-04-15T15:42:01.825Z,40.00
2018-04-15T15:44:30.154Z,40.00
2018-04-15T15:46:58.463Z,40.30
2018-04-15T15:49:26.798Z,40.70
2018-04-15T15:51:55.114Z,41.40
2018-04-15T15:54:23.450Z,42.30
2018-04-15T15:56:51.757Z,42.10
2018-04-15T15:59:20.091Z,41.90
2018-04-15T16:01:48.419Z,42.50
2018-04-15T16:04:16.737Z,42.60
2018-04-15T16:06:45.089Z,43.30
2018-04-15T16:09:13.399Z,43.80
2018-04-15T16:11:41.729Z,43.80
2018-04-15T16:14:10.050Z,43.50
2018-04-15T16:16:38.388Z,43.70
2018-04-15T16:19:06.698Z,44.40
2018-04-15T16:21:35.039Z,44.20
2018-04-15T16:24:03.359Z,44.60
2018-04-15T16:26:31.694Z,45.00
2018-04-15T16:28:59.997Z,45.30
2018-04-15T16:31:28.325Z,45.60
2018-04-15T16:33:56.625Z,45.70
2018-04-15T16:36:24.954Z,46.20
2018-04-15T16:38:53.294Z,45.90
2018-04-15T16:41:21.627Z,45.80
2018-04-15T16:43:49.950Z,46.40
2018-04-15T16:46:18.295Z,47.00
2018-04-15T16:48:46.607Z,47.00
2018-04-15T16:51:14.943Z,47.20
2018-04-15T16:53:43.562Z,47.40
2018-04-15T16:56:11.893Z,47.50
2018-04-15T16:58:40.200Z,47.60
2018-04-15T17:01:08.535Z,47.70
2018-04-15T17:03:36.840Z,47.80
2018-04-15T17:06:05.165Z,47.90
2018-04-15T17:08:33.474Z,48.20
2018-04-15T17:11:01.864Z,48.30
2018-04-15T17:13:30.154Z,48.40
2018-04-15T17:15:58.493Z,48.80
2018-04-15T17:18:26.809Z,49.40
2018-04-15T17:20:55.140Z,50.10
2018-04-15T17:23:23.457Z,50.40
2018-04-15T17:25:51.805Z,50.80
2018-04-15T17:28:20.118Z,51.20
2018-04-15T17:30:48.433Z,51.60
2018-04-15T17:33:16.770Z,52.20
2018-04-15T17:35:45.087Z,52.80
2018-04-15T17:38:13.422Z,53.10
2018-04-15T17:40:41.744Z,53.40
2018-04-15T17:43:10.077Z,53.70
2018-04-15T17:45:38.387Z,54.10
2018-04-15T17:48:06.723Z,53.90
2018-04-15T17:50:35.033Z,54.10
2018-04-15T17:53:02.615Z,54.10
2018-04-15T17:55:30.929Z,55.50
2018-04-15T17:57:59.265Z,56.00
2018-04-15T18:00:27.583Z,56.60
2018-04-15T18:02:55.922Z,57.10
2018-04-15T18:05:24.233Z,57.30
2018-04-15T18:07:52.546Z,57.70
2018-04-15T18:10:20.876Z,58.00
2018-04-15T18:12:49.195Z,58.30
2018-04-15T18:15:17.522Z,58.70
2018-04-15T18:17:45.952Z,59.30
2018-04-15T18:20:14.387Z,59.60
2018-04-15T18:22:42.707Z,59.80
2018-04-15T18:25:11.030Z,60.10
2018-04-15T18:27:39.365Z,60.50
2018-04-15T18:30:07.700Z,60.90
2018-04-15T18:32:36.007Z,61.40
2018-04-15T18:35:04.466Z,61.40
2018-04-15T18:37:32.782Z,62.20
2018-04-15T18:40:01.125Z,62.60
2018-04-15T18:42:29.445Z,63.00
2018-04-15T18:44:57.779Z,63.30
2018-04-15T18:47:26.121Z,64.60
2018-04-15T18:49:54.458Z,64.20
2018-04-15T18:52:22.774Z,64.90
2018-04-15T18:54:50.394Z,64.80
2018-04-15T18:57:18.759Z,66.10
2018-04-15T18:59:47.111Z,66.60
2018-04-15T19:02:15.449Z,66.80
2018-04-15T19:04:43.794Z,67.20
2018-04-15T19:07:12.128Z,67.60
2018-04-15T19:09:40.471Z,68.50
2018-04-15T19:12:08.842Z,68.50
2018-04-15T19:14:37.145Z,68.80
2018-04-15T19:17:05.449Z,69.00
2018-04-15T19:19:33.809Z,69.40
2018-04-15T19:22:02.179Z,70.00
2018-04-15T19:24:30.519Z,70.70
2018-04-15T19:26:58.866Z,71.30
2018-04-15T19:29:27.207Z,71.70
2018-04-15T19:31:55.514Z,72.80
2018-04-15T19:34:23.900Z,72.20
2018-04-15T19:36:52.227Z,72.80
2018-04-15T19:39:20.568Z,73.20
2018-04-15T19:41:50.046Z,73.30
2018-04-15T19:44:18.405Z,73.80
2018-04-15T19:46:46.719Z,74.20
2018-04-15T19:49:15.045Z,74.50
2018-04-15T19:51:43.382Z,74.60
2018-04-15T19:54:11.722Z,74.80
2018-04-15T19:56:40.070Z,75.10
2018-04-15T19:59:08.386Z,75.80
2018-04-15T20:01:36.726Z,76.30
2018-04-15T20:04:05.046Z,76.70
2018-04-15T20:06:33.381Z,76.70
2018-04-15T20:09:01.694Z,76.70
2018-04-15T20:11:30.058Z,76.90
2018-04-15T20:13:58.446Z,77.30
2018-04-15T20:16:26.769Z,77.50
2018-04-15T20:18:55.115Z,77.80
2018-04-15T20:21:23.473Z,78.90
2018-04-15T20:23:51.865Z,78.20
2018-04-15T20:26:20.239Z,78.40
2018-04-15T20:28:48.561Z,78.60
2018-04-15T20:31:16.881Z,79.00
2018-04-15T20:33:45.225Z,79.20
2018-04-15T20:36:13.538Z,80.30
2018-04-15T20:38:41.873Z,79.80
2018-04-15T20:41:10.201Z,79.80
2018-04-15T20:43:38.549Z,80.00
2018-04-15T20:46:06.861Z,80.50
2018-04-15T20:48:35.198Z,80.80
2018-04-15T20:51:03.513Z,80.80
2018-04-15T20:53:31.852Z,80.90
2018-04-15T20:56:00.164Z,80.90
2018-04-15T20:58:28.494Z,80.90
2018-04-15T21:00:56.827Z,81.10
2018-04-15T21:03:25.174Z,81.00
2018-04-15T21:05:53.524Z,81.20
2018-04-15T21:08:21.861Z,81.30
2018-04-15T21:10:50.183Z,81.20
2018-04-15T21:13:19.269Z,81.30
2018-04-15T21:15:47.581Z,81.70
2018-04-15T21:18:15.935Z,81.90
2018-04-15T21:20:44.260Z,81.80
2018-04-15T21:23:12.585Z,82.20
2018-04-15T21:25:40.932Z,82.40
2018-04-15T21:28:09.240Z,82.30
2018-04-15T21:30:37.579Z,82.30
2018-04-15T21:33:05.890Z,82.50
2018-04-15T21:35:34.223Z,82.60
2018-04-15T21:38:02.530Z,82.70
2018-04-15T21:40:30.865Z,83.10
2018-04-15T21:42:59.174Z,83.40
2018-04-15T21:45:27.505Z,83.90
2018-04-15T21:47:55.819Z,84.20
2018-04-15T21:50:24.161Z,84.30
2018-04-15T21:52:52.487Z,84.20
2018-04-15T21:55:20.830Z,84.10
2018-04-15T21:57:49.151Z,83.90
2018-04-15T22:00:17.493Z,83.80
2018-04-15T22:02:45.798Z,84.00
2018-04-15T22:05:14.121Z,84.20
2018-04-15T22:07:42.443Z,84.70
2018-04-15T22:10:10.776Z,84.90
2018-04-15T22:12:39.097Z,85.20
2018-04-15T22:15:07.435Z,85.50
2018-04-15T22:17:35.747Z,85.40
2018-04-15T22:20:04.085Z,85.40
2018-04-15T22:22:32.397Z,85.50
2018-04-15T22:25:00.730Z,85.80
2018-04-15T22:27:28.277Z,85.80
2018-04-15T22:29:56.609Z,86.30
2018-04-15T22:32:24.925Z,86.70
2018-04-15T22:34:53.267Z,86.70
2018-04-15T22:37:21.582Z,86.70
2018-04-15T22:39:49.922Z,86.70
2018-04-15T22:42:18.230Z,86.70
2018-04-15T22:44:46.570Z,86.70
2018-04-15T22:47:14.884Z,86.50
2018-04-15T22:49:43.224Z,86.70
2018-04-15T22:52:11.543Z,86.90
2018-04-15T22:54:39.877Z,87.60
2018-04-15T22:57:13.283Z,87.60
2018-04-15T22:59:41.625Z,87.90
2018-04-15T23:02:09.938Z,88.00
2018-04-15T23:04:38.286Z,88.10
2018-04-15T23:07:06.601Z,88.40
2018-04-15T23:09:34.958Z,88.50
2018-04-15T23:12:03.274Z,88.30
2018-04-15T23:14:31.591Z,88.30
2018-04-15T23:16:59.931Z,88.20
2018-04-15T23:19:28.241Z,88.10
2018-04-15T23:21:56.581Z,88.00
2018-04-15T23:24:24.906Z,88.10
2018-04-15T23:26:53.250Z,88.10
2018-04-15T23:29:21.578Z,88.10
2018-04-15T23:31:49.910Z,89.40
2018-04-15T23:34:18.238Z,89.50
2018-04-15T23:36:46.570Z,89.40
2018-04-15T23:39:14.891Z,89.70
2018-04-15T23:41:43.221Z,89.80
2018-04-15T23:44:11.536Z,90.00
2018-04-15T23:46:39.874Z,89.80
2018-04-15T23:49:08.199Z,89.70
2018-04-15T23:51:36.546Z,89.60
2018-04-15T23:54:04.852Z,89.90
2018-04-15T23:56:33.195Z,89.90
2018-04-15T23:59:01.523Z,90.10
